createdAt,value
2022-09-07T11:31:39.305Z,11100.00
2022-09-07T11:35:44.786Z,10204.00
2022-09-07T11:36:44.777Z,9228.00
2022-09-07T11:37:44.756Z,8924.00
2022-09-07T11:38:44.732Z,8696.00
2022-09-07T11:39:44.798Z,8484.00
2022-09-07T11:40:44.719Z,8532.00
2022-09-07T11:41:44.705Z,8508.00
2022-09-07T11:42:44.720Z,8564.00
2022-09-07T11:43:44.664Z,8840.00
2022-09-07T11:44:52.521Z,9460.00
2022-09-07T11:45:44.645Z,9952.00
2022-09-07T11:46:44.754Z,10076.00
2022-09-07T11:47:44.625Z,10736.00
2022-09-07T11:48:44.607Z,11144.00
2022-09-07T11:49:50.796Z,11820.00
2022-09-07T11:50:44.572Z,12364.00
2022-09-07T11:51:44.568Z,12984.00
2022-09-07T11:52:44.570Z,14108.00
2022-09-07T11:53:44.546Z,14592.00
2022-09-07T11:54:44.540Z,14384.00
2022-09-07T11:55:44.511Z,14684.00
2022-09-07T11:56:45.766Z,16064.00
2022-09-07T11:57:44.512Z,17216.00
2022-09-07T11:58:44.481Z,18304.00
2022-09-07T11:59:44.465Z,19008.00
2022-09-07T12:00:44.463Z,20416.00
2022-09-07T12:01:44.449Z,20736.00
2022-09-07T12:02:59.020Z,19072.00
2022-09-07T12:03:44.524Z,16052.00
2022-09-07T12:04:44.479Z,14572.00
2022-09-07T12:05:44.398Z,12508.00
2022-09-07T12:06:44.412Z,11820.00
2022-09-07T12:07:44.411Z,15208.00
2022-09-07T12:08:44.438Z,13836.00
2022-09-07T12:09:44.362Z,14568.00
2022-09-07T12:10:44.359Z,16960.00
2022-09-07T12:11:44.354Z,13520.00
2022-09-07T12:12:44.353Z,12968.00
2022-09-07T12:13:44.316Z,12124.00
2022-09-07T12:19:35.891Z,27360.00
2022-09-07T12:20:35.869Z,15104.00
2022-09-07T12:21:35.855Z,17312.00
2022-09-07T12:22:35.860Z,13952.00
2022-09-07T12:23:35.842Z,13976.00
2022-09-07T12:24:35.834Z,14572.00
2022-09-07T12:25:35.813Z,50624.00
2022-09-07T12:26:35.811Z,50784.00
2022-09-07T12:27:35.802Z,52832.00
2022-09-07T12:28:35.915Z,57632.00
2022-09-07T12:29:35.766Z,61280.00
2022-09-07T12:30:35.754Z,61888.00
2022-09-07T12:31:39.697Z,22208.00
2022-09-07T12:33:35.768Z,61024.00
2022-09-07T12:34:35.708Z,67104.00
2022-09-07T12:35:35.707Z,75296.00
2022-09-07T12:36:35.707Z,70592.00
2022-09-07T12:37:35.729Z,71456.00
2022-09-07T12:38:35.679Z,72928.00
2022-09-07T12:39:35.718Z,72160.00
2022-09-07T12:40:35.654Z,70144.00
2022-09-07T12:41:35.644Z,70784.00
2022-09-07T12:42:37.421Z,71936.00
2022-09-07T12:43:35.627Z,71616.00
2022-09-07T12:44:35.621Z,71264.00
2022-09-07T12:45:35.592Z,64896.00
2022-09-07T12:46:35.691Z,62624.00
2022-09-07T12:47:35.581Z,67040.00
2022-09-07T12:48:35.588Z,61728.00
2022-09-07T12:49:35.552Z,63872.00
2022-09-07T12:50:39.267Z,66816.00
2022-09-07T12:52:35.523Z,17632.00
2022-09-07T12:53:35.540Z,23840.00
2022-09-07T12:54:35.513Z,72160.00
2022-09-07T12:56:15.697Z,77184.00
2022-09-07T12:56:35.494Z,72512.00
2022-09-07T12:57:35.479Z,22816.00
2022-09-07T12:58:35.489Z,16288.00
2022-09-07T12:59:35.457Z,73280.00
2022-09-07T13:00:35.461Z,77696.00
2022-09-07T13:01:35.526Z,75520.00
2022-09-07T13:02:35.583Z,67936.00
2022-09-07T13:03:51.898Z,19104.00
2022-09-07T13:04:35.413Z,58464.00
2022-09-07T13:05:35.413Z,16100.00
2022-09-07T13:07:04.891Z,13392.00
2022-09-07T13:08:15.461Z,14984.00
2022-09-07T13:09:15.429Z,49504.00
2022-09-07T13:12:57.105Z,49920.00
2022-09-07T13:14:09.408Z,68288.00
2022-09-07T13:14:51.571Z,71456.00
2022-09-07T13:15:51.594Z,67488.00
2022-09-07T13:17:51.546Z,62208.00
2022-09-07T13:18:52.472Z,64640.00
2022-09-07T13:19:51.510Z,62432.00
2022-09-07T13:20:53.585Z,53952.00
2022-09-07T13:21:51.498Z,48896.00
2022-09-07T13:22:51.495Z,50592.00
2022-09-07T13:23:51.472Z,38688.00
2022-09-07T13:24:51.572Z,15280.00
2022-09-07T13:25:51.472Z,26112.00
2022-09-07T13:26:51.528Z,15632.00
2022-09-07T13:27:51.502Z,19392.00
2022-09-07T13:28:51.436Z,31584.00
2022-09-07T13:29:51.423Z,27456.00
2022-09-07T13:30:51.441Z,26624.00
2022-09-07T13:31:51.698Z,26080.00
2022-09-07T13:33:51.392Z,24960.00
2022-09-07T13:34:51.378Z,30496.00
2022-09-07T13:35:51.367Z,32512.00
2022-09-07T13:36:51.362Z,37536.00
2022-09-07T13:37:51.339Z,36544.00
2022-09-07T13:38:51.356Z,35136.00
2022-09-07T13:39:51.410Z,19232.00
2022-09-07T13:40:51.320Z,17344.00
2022-09-07T13:41:51.307Z,17152.00
2022-09-07T13:42:51.306Z,17600.00
2022-09-07T13:43:51.291Z,20384.00
2022-09-07T13:44:51.290Z,38880.00
2022-09-07T13:45:51.336Z,47456.00
2022-09-07T13:46:51.251Z,46624.00
2022-09-07T13:47:51.239Z,22016.00
2022-09-07T13:48:51.253Z,29504.00
2022-09-07T13:49:55.603Z,34144.00
2022-09-07T13:50:51.212Z,21184.00
2022-09-07T13:51:51.199Z,17760.00
2022-09-07T13:52:51.191Z,33472.00
2022-09-07T13:53:51.195Z,45472.00
2022-09-07T13:54:51.180Z,38944.00
2022-09-07T13:55:51.162Z,29920.00
2022-09-07T13:56:51.152Z,24704.00
2022-09-07T13:57:51.142Z,56608.00
2022-09-07T13:58:51.157Z,71008.00
2022-09-07T13:59:51.121Z,72480.00
2022-09-07T14:00:51.204Z,77536.00
2022-09-07T14:01:51.229Z,73536.00
2022-09-07T14:02:55.801Z,32000.00
2022-09-07T14:03:51.095Z,23904.00
2022-09-07T14:04:51.084Z,49600.00
2022-09-07T14:05:51.095Z,71232.00
2022-09-07T14:06:51.067Z,75456.00
2022-09-07T14:07:51.057Z,73824.00
2022-09-07T14:08:51.057Z,18752.00
2022-09-07T14:09:51.053Z,18240.00
2022-09-07T14:14:36.842Z,48192.00
2022-09-07T14:15:36.857Z,61920.00
2022-09-07T14:16:36.905Z,32768.00
2022-09-07T14:17:36.805Z,17984.00
2022-09-07T14:18:36.804Z,15616.00
2022-09-07T14:21:05.189Z,39936.00
2022-09-07T14:22:05.155Z,43104.00
2022-09-07T14:27:20.212Z,15992.00
2022-09-07T14:28:20.189Z,58624.00
2022-09-07T14:29:20.206Z,56800.00
2022-09-07T14:30:20.178Z,59296.00
2022-09-07T14:31:20.262Z,55680.00
2022-09-07T14:32:20.162Z,55360.00
2022-09-07T14:33:20.169Z,49024.00
2022-09-07T14:34:20.156Z,41504.00
2022-09-07T14:35:20.143Z,30752.00
2022-09-07T14:36:44.645Z,33312.00
2022-09-07T14:37:21.225Z,26720.00
2022-09-07T14:39:13.327Z,22688.00
2022-09-07T14:39:20.125Z,24640.00
2022-09-07T14:40:20.153Z,24896.00
2022-09-07T14:41:20.076Z,27200.00
2022-09-07T14:42:20.107Z,26560.00
2022-09-07T14:43:20.069Z,25504.00
2022-09-07T14:44:20.068Z,23584.00
2022-09-07T14:45:20.042Z,23968.00
2022-09-07T14:46:20.059Z,22368.00
2022-09-07T14:47:20.062Z,22528.00
2022-09-07T14:48:20.026Z,17856.00
2022-09-07T14:49:20.032Z,17088.00
2022-09-07T14:50:20.534Z,16096.00
2022-09-07T14:51:32.688Z,15968.00
2022-09-07T14:52:19.996Z,14696.00
2022-09-07T14:53:35.547Z,13864.00
2022-09-07T14:54:12.300Z,15464.00
2022-09-07T14:55:12.289Z,18368.00
2022-09-07T14:56:12.281Z,16512.00
2022-09-07T14:57:12.270Z,18944.00
2022-09-07T14:58:12.254Z,21504.00
2022-09-07T14:59:12.255Z,20768.00
2022-09-07T15:00:12.244Z,25120.00
2022-09-07T15:02:12.290Z,25792.00
2022-09-07T15:03:12.226Z,25888.00
2022-09-07T15:04:12.299Z,26208.00
2022-09-07T15:05:12.186Z,35936.00
2022-09-07T15:07:01.049Z,34400.00
2022-09-07T15:07:12.168Z,27904.00
2022-09-07T15:08:12.160Z,24448.00
2022-09-07T15:09:12.171Z,18112.00
2022-09-07T15:10:12.142Z,18144.00
2022-09-07T15:12:12.121Z,19392.00
2022-09-07T15:13:12.122Z,17152.00
2022-09-07T15:14:12.128Z,16288.00
2022-09-07T15:15:12.119Z,15904.00
2022-09-07T15:16:13.237Z,15544.00
2022-09-07T15:18:12.116Z,14908.00
2022-09-07T15:19:12.097Z,14752.00
2022-09-07T15:20:12.058Z,14336.00
2022-09-07T15:21:12.035Z,13296.00
2022-09-07T15:22:37.910Z,12320.00
2022-09-07T15:42:59.657Z,14392.00
2022-09-07T15:43:13.684Z,14588.00
2022-09-07T15:44:02.945Z,14644.00
2022-09-07T15:45:02.921Z,14516.00
2022-09-07T15:46:03.765Z,14604.00
2022-09-07T15:48:02.887Z,14256.00
2022-09-07T15:49:02.851Z,13768.00
2022-09-07T15:50:03.349Z,13296.00
2022-09-07T16:06:35.848Z,20864.00
2022-09-07T16:08:34.684Z,12684.00
2022-09-07T16:21:51.562Z,14112.00
2022-09-07T16:23:51.526Z,17440.00
2022-09-07T16:24:51.503Z,18304.00
2022-09-07T16:25:51.523Z,20736.00
2022-09-07T16:26:51.493Z,22304.00
2022-09-07T16:27:51.469Z,20832.00
2022-09-07T16:28:51.457Z,21344.00
2022-09-07T16:29:51.477Z,18912.00
2022-09-07T16:30:51.457Z,18144.00
2022-09-07T16:32:51.663Z,14912.00
2022-09-07T16:33:51.413Z,10476.00
2022-09-07T16:35:41.441Z,9932.00
2022-09-07T16:36:41.411Z,9792.00
